sensor_id;sensor_type;location;lat;lon;timestamp;P1;durP1;ratioP1;P2;durP2;ratioP2
19778;SDS011;10049;59.306;18.090;2024-03-02T00:00:58;11.75;;;6.13;;
19778;SDS011;10049;59.306;18.090;2024-03-02T00:03:27;10.57;;;5.35;;
19778;SDS011;10049;59.306;18.090;2024-03-02T00:05:55;13.15;;;5.32;;
19778;SDS011;10049;59.306;18.090;2024-03-02T00:08:23;13.73;;;5.88;;
19778;SDS011;10049;59.306;18.090;2024-03-02T00:10:52;13.48;;;6.07;;
19778;SDS011;10049;59.306;18.090;2024-03-02T00:13:25;13.02;;;5.38;;
19778;SDS011;10049;59.306;18.090;2024-03-02T00:15:53;15.30;;;6.05;;
19778;SDS011;10049;59.306;18.090;2024-03-02T00:18:24;18.30;;;5.80;;
19778;SDS011;10049;59.306;18.090;2024-03-02T00:20:54;12.07;;;5.80;;
19778;SDS011;10049;59.306;18.090;2024-03-02T00:23:22;14.70;;;5.95;;
19778;SDS011;10049;59.306;18.090;2024-03-02T00:25:53;9.90;;;5.80;;
19778;SDS011;10049;59.306;18.090;2024-03-02T00:28:21;13.65;;;5.63;;
19778;SDS011;10049;59.306;18.090;2024-03-02T00:30:55;18.63;;;5.80;;
19778;SDS011;10049;59.306;18.090;2024-03-02T00:33:23;13.23;;;6.07;;
19778;SDS011;10049;59.306;18.090;2024-03-02T00:35:51;13.82;;;6.03;;
19778;SDS011;10049;59.306;18.090;2024-03-02T00:38:22;12.43;;;5.22;;
19778;SDS011;10049;59.306;18.090;2024-03-02T00:40:51;14.15;;;6.03;;
19778;SDS011;10049;59.306;18.090;2024-03-02T00:46:12;12.90;;;6.10;;
19778;SDS011;10049;59.306;18.090;2024-03-02T00:48:42;13.80;;;5.43;;
19778;SDS011;10049;59.306;18.090;2024-03-02T00:51:15;13.82;;;6.30;;
19778;SDS011;10049;59.306;18.090;2024-03-02T00:53:44;18.63;;;6.22;;
19778;SDS011;10049;59.306;18.090;2024-03-02T00:56:14;12.48;;;5.07;;
19778;SDS011;10049;59.306;18.090;2024-03-02T00:58:42;15.85;;;5.75;;
19778;SDS011;10049;59.306;18.090;2024-03-02T01:01:09;10.43;;;5.35;;
19778;SDS011;10049;59.306;18.090;2024-03-02T01:03:37;12.05;;;5.93;;
19778;SDS011;10049;59.306;18.090;2024-03-02T01:06:08;12.93;;;6.10;;
19778;SDS011;10049;59.306;18.090;2024-03-02T01:08:35;15.27;;;6.30;;
19778;SDS011;10049;59.306;18.090;2024-03-02T01:11:04;13.77;;;6.07;;
19778;SDS011;10049;59.306;18.090;2024-03-02T01:13:32;16.33;;;6.20;;
19778;SDS011;10049;59.306;18.090;2024-03-02T01:16:00;12.35;;;5.95;;
19778;SDS011;10049;59.306;18.090;2024-03-02T01:18:29;14.15;;;6.00;;
19778;SDS011;10049;59.306;18.090;2024-03-02T01:20:57;15.50;;;6.28;;
19778;SDS011;10049;59.306;18.090;2024-03-02T01:23:24;13.15;;;6.40;;
19778;SDS011;10049;59.306;18.090;2024-03-02T01:25:52;15.48;;;6.53;;
19778;SDS011;10049;59.306;18.090;2024-03-02T01:28:21;12.30;;;5.78;;
19778;SDS011;10049;59.306;18.090;2024-03-02T01:30:49;10.77;;;5.30;;
19778;SDS011;10049;59.306;18.090;2024-03-02T01:33:16;13.68;;;6.10;;
19778;SDS011;10049;59.306;18.090;2024-03-02T01:35:45;17.30;;;6.47;;
19778;SDS011;10049;59.306;18.090;2024-03-02T01:38:27;12.75;;;5.60;;
19778;SDS011;10049;59.306;18.090;2024-03-02T01:40:55;16.23;;;6.38;;
19778;SDS011;10049;59.306;18.090;2024-03-02T01:43:33;14.93;;;6.00;;
19778;SDS011;10049;59.306;18.090;2024-03-02T01:46:01;13.10;;;6.10;;
19778;SDS011;10049;59.306;18.090;2024-03-02T01:48:28;14.23;;;6.40;;
19778;SDS011;10049;59.306;18.090;2024-03-02T01:50:59;16.23;;;6.78;;
19778;SDS011;10049;59.306;18.090;2024-03-02T01:53:27;12.77;;;5.78;;
19778;SDS011;10049;59.306;18.090;2024-03-02T01:55:54;12.15;;;6.50;;
19778;SDS011;10049;59.306;18.090;2024-03-02T01:58:30;18.20;;;6.68;;
19778;SDS011;10049;59.306;18.090;2024-03-02T02:00:59;13.35;;;6.25;;
19778;SDS011;10049;59.306;18.090;2024-03-02T02:03:26;16.15;;;7.00;;
19778;SDS011;10049;59.306;18.090;2024-03-02T02:05:54;18.88;;;6.70;;
19778;SDS011;10049;59.306;18.090;2024-03-02T02:08:23;15.82;;;6.60;;
19778;SDS011;10049;59.306;18.090;2024-03-02T02:10:50;14.70;;;6.50;;
19778;SDS011;10049;59.306;18.090;2024-03-02T02:13:19;15.30;;;6.70;;
19778;SDS011;10049;59.306;18.090;2024-03-02T02:15:49;16.67;;;6.70;;
19778;SDS011;10049;59.306;18.090;2024-03-02T02:18:18;13.80;;;6.38;;
19778;SDS011;10049;59.306;18.090;2024-03-02T02:20:46;18.52;;;6.90;;
19778;SDS011;10049;59.306;18.090;2024-03-02T02:23:22;13.82;;;6.70;;
19778;SDS011;10049;59.306;18.090;2024-03-02T02:25:50;15.27;;;6.80;;
19778;SDS011;10049;59.306;18.090;2024-03-02T02:28:18;16.97;;;6.50;;
19778;SDS011;10049;59.306;18.090;2024-03-02T02:30:46;13.68;;;6.05;;
19778;SDS011;10049;59.306;18.090;2024-03-02T02:33:23;16.35;;;6.15;;
19778;SDS011;10049;59.306;18.090;2024-03-02T02:36:04;13.68;;;5.93;;
19778;SDS011;10049;59.306;18.090;2024-03-02T02:38:33;12.38;;;5.97;;
19778;SDS011;10049;59.306;18.090;2024-03-02T02:41:07;11.20;;;6.10;;
19778;SDS011;10049;59.306;18.090;2024-03-02T02:43:34;17.95;;;6.88;;
19778;SDS011;10049;59.306;18.090;2024-03-02T02:46:02;16.58;;;6.82;;
19778;SDS011;10049;59.306;18.090;2024-03-02T02:48:30;13.38;;;6.78;;
19778;SDS011;10049;59.306;18.090;2024-03-02T02:50:58;12.43;;;6.73;;
19778;SDS011;10049;59.306;18.090;2024-03-02T02:53:25;17.70;;;6.82;;
19778;SDS011;10049;59.306;18.090;2024-03-02T02:55:58;16.90;;;7.00;;
19778;SDS011;10049;59.306;18.090;2024-03-02T02:58:26;12.13;;;6.53;;
19778;SDS011;10049;59.306;18.090;2024-03-02T03:00:54;18.55;;;7.13;;
19778;SDS011;10049;59.306;18.090;2024-03-02T03:03:23;16.58;;;6.97;;
19778;SDS011;10049;59.306;18.090;2024-03-02T03:05:52;15.07;;;6.63;;
19778;SDS011;10049;59.306;18.090;2024-03-02T03:08:20;13.50;;;6.72;;
19778;SDS011;10049;59.306;18.090;2024-03-02T03:10:48;15.68;;;6.30;;
19778;SDS011;10049;59.306;18.090;2024-03-02T03:13:19;14.85;;;6.93;;
19778;SDS011;10049;59.306;18.090;2024-03-02T03:15:47;14.88;;;6.35;;
19778;SDS011;10049;59.306;18.090;2024-03-02T03:18:14;12.60;;;6.28;;
19778;SDS011;10049;59.306;18.090;2024-03-02T03:20:42;14.20;;;6.88;;
19778;SDS011;10049;59.306;18.090;2024-03-02T03:23:09;15.88;;;6.35;;
19778;SDS011;10049;59.306;18.090;2024-03-02T03:25:40;18.20;;;7.07;;
19778;SDS011;10049;59.306;18.090;2024-03-02T03:28:09;15.50;;;6.83;;
19778;SDS011;10049;59.306;18.090;2024-03-02T03:30:42;18.25;;;7.40;;
19778;SDS011;10049;59.306;18.090;2024-03-02T03:33:09;15.27;;;6.87;;
19778;SDS011;10049;59.306;18.090;2024-03-02T03:35:39;18.40;;;7.30;;
19778;SDS011;10049;59.306;18.090;2024-03-02T03:38:08;13.88;;;6.90;;
19778;SDS011;10049;59.306;18.090;2024-03-02T03:40:35;19.80;;;7.20;;
19778;SDS011;10049;59.306;18.090;2024-03-02T03:43:03;14.37;;;6.80;;
19778;SDS011;10049;59.306;18.090;2024-03-02T03:45:31;19.70;;;7.43;;
19778;SDS011;10049;59.306;18.090;2024-03-02T03:51:01;14.15;;;6.93;;
19778;SDS011;10049;59.306;18.090;2024-03-02T03:53:29;15.18;;;7.63;;
19778;SDS011;10049;59.306;18.090;2024-03-02T03:55:57;17.40;;;7.28;;
19778;SDS011;10049;59.306;18.090;2024-03-02T03:58:25;17.25;;;7.07;;
19778;SDS011;10049;59.306;18.090;2024-03-02T04:00:52;14.88;;;6.90;;
19778;SDS011;10049;59.306;18.090;2024-03-02T04:03:28;18.98;;;7.72;;
19778;SDS011;10049;59.306;18.090;2024-03-02T04:05:58;14.27;;;6.93;;
19778;SDS011;10049;59.306;18.090;2024-03-02T04:08:28;17.98;;;7.20;;
19778;SDS011;10049;59.306;18.090;2024-03-02T04:10:56;19.67;;;7.07;;
19778;SDS011;10049;59.306;18.090;2024-03-02T04:13:23;15.93;;;7.00;;
19778;SDS011;10049;59.306;18.090;2024-03-02T04:15:51;15.77;;;7.60;;
19778;SDS011;10049;59.306;18.090;2024-03-02T04:18:19;16.08;;;6.50;;
19778;SDS011;10049;59.306;18.090;2024-03-02T04:20:46;20.08;;;6.97;;
19778;SDS011;10049;59.306;18.090;2024-03-02T04:23:14;15.27;;;6.90;;
19778;SDS011;10049;59.306;18.090;2024-03-02T04:25:44;20.20;;;7.20;;
19778;SDS011;10049;59.306;18.090;2024-03-02T04:28:11;15.00;;;6.90;;
19778;SDS011;10049;59.306;18.090;2024-03-02T04:30:39;16.47;;;6.70;;
19778;SDS011;10049;59.306;18.090;2024-03-02T04:33:08;16.47;;;6.73;;
19778;SDS011;10049;59.306;18.090;2024-03-02T04:35:37;18.15;;;7.72;;
19778;SDS011;10049;59.306;18.090;2024-03-02T04:38:05;17.70;;;7.27;;
19778;SDS011;10049;59.306;18.090;2024-03-02T04:40:33;13.93;;;6.87;;
19778;SDS011;10049;59.306;18.090;2024-03-02T04:43:02;15.50;;;7.13;;
19778;SDS011;10049;59.306;18.090;2024-03-02T04:45:30;15.48;;;6.65;;
19778;SDS011;10049;59.306;18.090;2024-03-02T04:48:00;12.97;;;6.60;;
19778;SDS011;10049;59.306;18.090;2024-03-02T04:50:28;16.30;;;6.40;;
19778;SDS011;10049;59.306;18.090;2024-03-02T04:52:56;17.33;;;6.45;;
19778;SDS011;10049;59.306;18.090;2024-03-02T04:55:23;17.60;;;7.00;;
19778;SDS011;10049;59.306;18.090;2024-03-02T04:58:32;16.07;;;6.53;;
19778;SDS011;10049;59.306;18.090;2024-03-02T05:01:00;15.03;;;7.07;;
19778;SDS011;10049;59.306;18.090;2024-03-02T05:03:30;17.70;;;8.10;;
19778;SDS011;10049;59.306;18.090;2024-03-02T05:05:59;16.67;;;7.37;;
19778;SDS011;10049;59.306;18.090;2024-03-02T05:08:30;19.07;;;7.00;;
19778;SDS011;10049;59.306;18.090;2024-03-02T05:10:58;19.13;;;8.00;;
19778;SDS011;10049;59.306;18.090;2024-03-02T05:13:47;15.67;;;6.73;;
19778;SDS011;10049;59.306;18.090;2024-03-02T05:16:14;13.27;;;6.73;;
19778;SDS011;10049;59.306;18.090;2024-03-02T05:18:42;19.97;;;7.53;;
19778;SDS011;10049;59.306;18.090;2024-03-02T05:21:09;16.47;;;7.27;;
19778;SDS011;10049;59.306;18.090;2024-03-02T05:23:38;14.47;;;6.77;;
19778;SDS011;10049;59.306;18.090;2024-03-02T05:26:06;17.83;;;7.50;;
19778;SDS011;10049;59.306;18.090;2024-03-02T05:28:36;17.43;;;7.43;;
19778;SDS011;10049;59.306;18.090;2024-03-02T05:31:09;16.03;;;7.00;;
19778;SDS011;10049;59.306;18.090;2024-03-02T05:33:38;14.97;;;6.40;;
19778;SDS011;10049;59.306;18.090;2024-03-02T05:36:06;17.43;;;6.93;;
19778;SDS011;10049;59.306;18.090;2024-03-02T05:38:34;13.67;;;7.07;;
19778;SDS011;10049;59.306;18.090;2024-03-02T05:41:03;14.70;;;6.43;;
19778;SDS011;10049;59.306;18.090;2024-03-02T05:43:31;19.47;;;7.27;;
19778;SDS011;10049;59.306;18.090;2024-03-02T05:45:59;15.87;;;7.07;;
19778;SDS011;10049;59.306;18.090;2024-03-02T05:48:28;15.97;;;6.77;;
19778;SDS011;10049;59.306;18.090;2024-03-02T05:50:56;18.43;;;6.40;;
19778;SDS011;10049;59.306;18.090;2024-03-02T05:53:25;19.00;;;7.03;;
19778;SDS011;10049;59.306;18.090;2024-03-02T05:55:52;19.43;;;7.53;;
19778;SDS011;10049;59.306;18.090;2024-03-02T05:58:29;17.33;;;7.00;;
19778;SDS011;10049;59.306;18.090;2024-03-02T06:01:12;17.57;;;7.00;;
19778;SDS011;10049;59.306;18.090;2024-03-02T06:03:42;18.10;;;6.57;;
19778;SDS011;10049;59.306;18.090;2024-03-02T06:06:09;14.93;;;6.90;;
19778;SDS011;10049;59.306;18.090;2024-03-02T06:08:37;22.92;;;7.03;;
19778;SDS011;10049;59.306;18.090;2024-03-02T06:11:05;11.07;;;5.90;;
19778;SDS011;10049;59.306;18.090;2024-03-02T06:13:34;12.73;;;6.40;;
19778;SDS011;10049;59.306;18.090;2024-03-02T06:16:04;18.73;;;7.03;;
19778;SDS011;10049;59.306;18.090;2024-03-02T06:18:33;14.35;;;6.88;;
19778;SDS011;10049;59.306;18.090;2024-03-02T06:21:03;15.57;;;6.97;;
19778;SDS011;10049;59.306;18.090;2024-03-02T06:23:32;18.45;;;7.07;;
19778;SDS011;10049;59.306;18.090;2024-03-02T06:26:00;17.05;;;7.47;;
19778;SDS011;10049;59.306;18.090;2024-03-02T06:28:28;19.77;;;6.68;;
19778;SDS011;10049;59.306;18.090;2024-03-02T06:30:56;14.90;;;6.25;;
19778;SDS011;10049;59.306;18.090;2024-03-02T06:33:24;14.63;;;6.35;;
19778;SDS011;10049;59.306;18.090;2024-03-02T06:36:00;16.73;;;7.03;;
19778;SDS011;10049;59.306;18.090;2024-03-02T06:38:35;13.80;;;6.55;;
19778;SDS011;10049;59.306;18.090;2024-03-02T06:41:06;18.25;;;6.80;;
19778;SDS011;10049;59.306;18.090;2024-03-02T06:43:33;17.48;;;6.55;;
19778;SDS011;10049;59.306;18.090;2024-03-02T06:46:01;14.27;;;6.72;;
19778;SDS011;10049;59.306;18.090;2024-03-02T06:48:30;13.73;;;6.30;;
19778;SDS011;10049;59.306;18.090;2024-03-02T06:50:58;15.50;;;6.88;;
19778;SDS011;10049;59.306;18.090;2024-03-02T06:53:26;12.57;;;6.30;;
19778;SDS011;10049;59.306;18.090;2024-03-02T06:55:56;13.85;;;5.95;;
19778;SDS011;10049;59.306;18.090;2024-03-02T06:58:24;12.68;;;5.82;;
19778;SDS011;10049;59.306;18.090;2024-03-02T07:00:52;12.70;;;6.00;;
19778;SDS011;10049;59.306;18.090;2024-03-02T07:03:20;14.60;;;6.25;;
19778;SDS011;10049;59.306;18.090;2024-03-02T07:05:47;12.27;;;6.05;;
19778;SDS011;10049;59.306;18.090;2024-03-02T07:08:15;12.35;;;6.28;;
19778;SDS011;10049;59.306;18.090;2024-03-02T07:10:43;14.07;;;6.20;;
19778;SDS011;10049;59.306;18.090;2024-03-02T07:13:14;13.35;;;6.05;;
19778;SDS011;10049;59.306;18.090;2024-03-02T07:15:42;12.77;;;5.97;;
19778;SDS011;10049;59.306;18.090;2024-03-02T07:18:25;13.45;;;6.05;;
19778;SDS011;10049;59.306;18.090;2024-03-02T07:20:56;11.90;;;5.45;;
19778;SDS011;10049;59.306;18.090;2024-03-02T07:23:31;10.00;;;5.70;;
19778;SDS011;10049;59.306;18.090;2024-03-02T07:26:00;11.35;;;5.05;;
19778;SDS011;10049;59.306;18.090;2024-03-02T07:28:31;11.70;;;5.10;;
19778;SDS011;10049;59.306;18.090;2024-03-02T07:30:59;14.23;;;5.70;;
19778;SDS011;10049;59.306;18.090;2024-03-02T07:33:27;12.77;;;5.78;;
19778;SDS011;10049;59.306;18.090;2024-03-02T07:35:58;13.60;;;5.22;;
19778;SDS011;10049;59.306;18.090;2024-03-02T07:38:27;8.88;;;5.00;;
19778;SDS011;10049;59.306;18.090;2024-03-02T07:40:56;9.68;;;4.95;;
19778;SDS011;10049;59.306;18.090;2024-03-02T07:43:26;11.27;;;5.30;;
19778;SDS011;10049;59.306;18.090;2024-03-02T07:45:59;8.38;;;4.82;;
19778;SDS011;10049;59.306;18.090;2024-03-02T07:48:28;9.40;;;5.10;;
19778;SDS011;10049;59.306;18.090;2024-03-02T07:51:03;8.30;;;4.90;;
19778;SDS011;10049;59.306;18.090;2024-03-02T07:53:31;9.90;;;4.63;;
19778;SDS011;10049;59.306;18.090;2024-03-02T07:55:58;9.13;;;4.82;;
19778;SDS011;10049;59.306;18.090;2024-03-02T07:58:28;8.80;;;4.93;;
19778;SDS011;10049;59.306;18.090;2024-03-02T08:03:47;7.20;;;4.43;;
19778;SDS011;10049;59.306;18.090;2024-03-02T08:06:15;9.43;;;4.47;;
19778;SDS011;10049;59.306;18.090;2024-03-02T08:08:47;9.93;;;4.70;;
19778;SDS011;10049;59.306;18.090;2024-03-02T08:11:15;7.88;;;4.32;;
19778;SDS011;10049;59.306;18.090;2024-03-02T08:13:44;6.60;;;3.55;;
19778;SDS011;10049;59.306;18.090;2024-03-02T08:16:14;10.25;;;4.53;;
19778;SDS011;10049;59.306;18.090;2024-03-02T08:18:51;6.07;;;3.80;;
19778;SDS011;10049;59.306;18.090;2024-03-02T08:21:19;7.20;;;4.10;;
19778;SDS011;10049;59.306;18.090;2024-03-02T08:23:48;7.00;;;4.22;;
19778;SDS011;10049;59.306;18.090;2024-03-02T08:26:23;7.53;;;4.28;;
19778;SDS011;10049;59.306;18.090;2024-03-02T08:28:56;8.38;;;4.07;;
19778;SDS011;10049;59.306;18.090;2024-03-02T08:31:24;7.63;;;4.05;;
19778;SDS011;10049;59.306;18.090;2024-03-02T08:33:52;9.00;;;4.38;;
19778;SDS011;10049;59.306;18.090;2024-03-02T08:36:28;8.40;;;4.10;;
19778;SDS011;10049;59.306;18.090;2024-03-02T08:38:56;9.07;;;4.35;;
19778;SDS011;10049;59.306;18.090;2024-03-02T08:41:25;7.47;;;4.00;;
19778;SDS011;10049;59.306;18.090;2024-03-02T08:43:54;10.93;;;4.47;;
19778;SDS011;10049;59.306;18.090;2024-03-02T08:46:22;7.05;;;4.35;;
19778;SDS011;10049;59.306;18.090;2024-03-02T08:48:49;10.10;;;4.20;;
19778;SDS011;10049;59.306;18.090;2024-03-02T08:51:20;9.38;;;3.95;;
19778;SDS011;10049;59.306;18.090;2024-03-02T08:53:53;6.55;;;4.00;;
19778;SDS011;10049;59.306;18.090;2024-03-02T08:56:22;6.05;;;3.75;;
19778;SDS011;10049;59.306;18.090;2024-03-02T08:58:53;8.18;;;3.88;;
19778;SDS011;10049;59.306;18.090;2024-03-02T09:01:23;7.63;;;4.20;;
19778;SDS011;10049;59.306;18.090;2024-03-02T09:03:50;5.07;;;2.50;;
19778;SDS011;10049;59.306;18.090;2024-03-02T09:06:20;6.45;;;3.55;;
19778;SDS011;10049;59.306;18.090;2024-03-02T09:08:49;7.38;;;3.53;;
19778;SDS011;10049;59.306;18.090;2024-03-02T09:11:17;7.65;;;3.90;;
19778;SDS011;10049;59.306;18.090;2024-03-02T09:13:54;6.30;;;3.95;;
19778;SDS011;10049;59.306;18.090;2024-03-02T09:16:24;8.05;;;3.67;;
19778;SDS011;10049;59.306;18.090;2024-03-02T09:19:05;6.72;;;3.60;;
19778;SDS011;10049;59.306;18.090;2024-03-02T09:24:22;6.25;;;3.70;;
19778;SDS011;10049;59.306;18.090;2024-03-02T09:26:50;8.77;;;3.97;;
19778;SDS011;10049;59.306;18.090;2024-03-02T09:29:35;5.93;;;4.05;;
19778;SDS011;10049;59.306;18.090;2024-03-02T09:32:06;6.97;;;2.35;;
19778;SDS011;10049;59.306;18.090;2024-03-02T09:34:34;8.23;;;3.45;;
19778;SDS011;10049;59.306;18.090;2024-03-02T09:37:02;6.57;;;3.70;;
19778;SDS011;10049;59.306;18.090;2024-03-02T09:39:36;7.38;;;4.22;;
19778;SDS011;10049;59.306;18.090;2024-03-02T09:42:07;5.93;;;3.13;;
19778;SDS011;10049;59.306;18.090;2024-03-02T09:44:35;4.85;;;3.40;;
19778;SDS011;10049;59.306;18.090;2024-03-02T09:47:11;5.70;;;3.75;;
19778;SDS011;10049;59.306;18.090;2024-03-02T09:49:39;5.55;;;3.60;;
19778;SDS011;10049;59.306;18.090;2024-03-02T09:52:08;6.80;;;4.03;;
19778;SDS011;10049;59.306;18.090;2024-03-02T09:54:49;7.50;;;4.10;;
19778;SDS011;10049;59.306;18.090;2024-03-02T09:57:18;7.05;;;3.80;;
19778;SDS011;10049;59.306;18.090;2024-03-02T09:59:46;6.30;;;3.17;;
19778;SDS011;10049;59.306;18.090;2024-03-02T10:02:13;7.95;;;3.80;;
19778;SDS011;10049;59.306;18.090;2024-03-02T10:04:42;8.23;;;4.20;;
19778;SDS011;10049;59.306;18.090;2024-03-02T10:07:10;5.60;;;3.58;;
19778;SDS011;10049;59.306;18.090;2024-03-02T10:09:37;6.65;;;3.65;;
19778;SDS011;10049;59.306;18.090;2024-03-02T10:12:07;6.63;;;3.55;;
19778;SDS011;10049;59.306;18.090;2024-03-02T10:14:36;5.13;;;3.35;;
19778;SDS011;10049;59.306;18.090;2024-03-02T10:17:05;9.50;;;4.13;;
19778;SDS011;10049;59.306;18.090;2024-03-02T10:19:33;8.10;;;2.80;;
19778;SDS011;10049;59.306;18.090;2024-03-02T10:22:02;6.38;;;3.67;;
19778;SDS011;10049;59.306;18.090;2024-03-02T10:24:40;6.00;;;3.92;;
19778;SDS011;10049;59.306;18.090;2024-03-02T10:27:15;6.97;;;3.75;;
19778;SDS011;10049;59.306;18.090;2024-03-02T10:29:45;6.10;;;3.90;;
19778;SDS011;10049;59.306;18.090;2024-03-02T10:32:15;4.75;;;2.75;;
19778;SDS011;10049;59.306;18.090;2024-03-02T10:34:44;7.20;;;3.65;;
19778;SDS011;10049;59.306;18.090;2024-03-02T10:37:12;6.65;;;3.70;;
19778;SDS011;10049;59.306;18.090;2024-03-02T10:39:42;7.65;;;3.92;;
19778;SDS011;10049;59.306;18.090;2024-03-02T10:42:16;6.18;;;3.42;;
19778;SDS011;10049;59.306;18.090;2024-03-02T10:44:45;6.85;;;3.90;;
19778;SDS011;10049;59.306;18.090;2024-03-02T10:47:15;5.78;;;3.20;;
19778;SDS011;10049;59.306;18.090;2024-03-02T10:49:42;5.63;;;3.83;;
19778;SDS011;10049;59.306;18.090;2024-03-02T10:52:11;4.95;;;3.30;;
19778;SDS011;10049;59.306;18.090;2024-03-02T10:54:41;6.88;;;3.50;;
19778;SDS011;10049;59.306;18.090;2024-03-02T10:57:11;5.60;;;3.30;;
19778;SDS011;10049;59.306;18.090;2024-03-02T10:59:46;7.25;;;3.83;;
19778;SDS011;10049;59.306;18.090;2024-03-02T11:02:16;5.80;;;3.38;;
19778;SDS011;10049;59.306;18.090;2024-03-02T11:04:45;6.55;;;3.65;;
19778;SDS011;10049;59.306;18.090;2024-03-02T11:07:14;9.93;;;3.50;;
19778;SDS011;10049;59.306;18.090;2024-03-02T11:09:45;7.32;;;3.75;;
19778;SDS011;10049;59.306;18.090;2024-03-02T11:12:18;5.85;;;3.58;;
19778;SDS011;10049;59.306;18.090;2024-03-02T11:14:57;7.55;;;3.90;;
19778;SDS011;10049;59.306;18.090;2024-03-02T11:17:25;5.97;;;3.95;;
19778;SDS011;10049;59.306;18.090;2024-03-02T11:19:56;4.30;;;3.03;;
19778;SDS011;10049;59.306;18.090;2024-03-02T11:22:23;6.78;;;3.63;;
19778;SDS011;10049;59.306;18.090;2024-03-02T11:24:52;5.80;;;3.30;;
19778;SDS011;10049;59.306;18.090;2024-03-02T11:33:13;6.13;;;3.28;;
19778;SDS011;10049;59.306;18.090;2024-03-02T11:35:41;6.13;;;3.47;;
19778;SDS011;10049;59.306;18.090;2024-03-02T11:38:12;7.03;;;3.28;;
19778;SDS011;10049;59.306;18.090;2024-03-02T11:40:39;7.47;;;3.80;;
19778;SDS011;10049;59.306;18.090;2024-03-02T11:43:07;6.95;;;3.05;;
19778;SDS011;10049;59.306;18.090;2024-03-02T11:45:36;6.53;;;3.80;;
19778;SDS011;10049;59.306;18.090;2024-03-02T11:48:12;9.55;;;4.00;;
19778;SDS011;10049;59.306;18.090;2024-03-02T11:50:46;5.45;;;3.13;;
19778;SDS011;10049;59.306;18.090;2024-03-02T11:53:27;4.57;;;2.67;;
19778;SDS011;10049;59.306;18.090;2024-03-02T11:55:55;6.68;;;3.10;;
19778;SDS011;10049;59.306;18.090;2024-03-02T11:58:28;4.18;;;2.72;;
19778;SDS011;10049;59.306;18.090;2024-03-02T12:00:56;6.32;;;3.45;;
19778;SDS011;10049;59.306;18.090;2024-03-02T12:03:24;7.72;;;3.88;;
19778;SDS011;10049;59.306;18.090;2024-03-02T12:05:56;6.00;;;3.28;;
19778;SDS011;10049;59.306;18.090;2024-03-02T12:08:31;6.70;;;3.13;;
19778;SDS011;10049;59.306;18.090;2024-03-02T12:11:04;5.03;;;3.08;;
19778;SDS011;10049;59.306;18.090;2024-03-02T12:13:33;9.00;;;3.60;;
19778;SDS011;10049;59.306;18.090;2024-03-02T12:16:01;5.70;;;3.00;;
19778;SDS011;10049;59.306;18.090;2024-03-02T12:18:31;4.25;;;2.40;;
19778;SDS011;10049;59.306;18.090;2024-03-02T12:21:03;7.55;;;3.08;;
19778;SDS011;10049;59.306;18.090;2024-03-02T12:23:34;7.63;;;3.95;;
19778;SDS011;10049;59.306;18.090;2024-03-02T12:26:02;10.50;;;3.58;;
19778;SDS011;10049;59.306;18.090;2024-03-02T12:28:30;9.80;;;3.67;;
19778;SDS011;10049;59.306;18.090;2024-03-02T12:30:58;4.95;;;2.97;;
19778;SDS011;10049;59.306;18.090;2024-03-02T12:33:26;6.40;;;3.13;;
19778;SDS011;10049;59.306;18.090;2024-03-02T12:35:56;5.80;;;3.58;;
19778;SDS011;10049;59.306;18.090;2024-03-02T12:38:26;6.82;;;3.65;;
19778;SDS011;10049;59.306;18.090;2024-03-02T12:41:01;5.65;;;3.75;;
19778;SDS011;10049;59.306;18.090;2024-03-02T12:43:30;5.60;;;3.40;;
19778;SDS011;10049;59.306;18.090;2024-03-02T12:45:58;6.45;;;3.33;;
19778;SDS011;10049;59.306;18.090;2024-03-02T12:48:35;4.72;;;3.20;;
19778;SDS011;10049;59.306;18.090;2024-03-02T12:51:06;7.13;;;3.47;;
19778;SDS011;10049;59.306;18.090;2024-03-02T12:53:38;7.55;;;3.30;;
19778;SDS011;10049;59.306;18.090;2024-03-02T12:56:07;6.63;;;3.63;;
19778;SDS011;10049;59.306;18.090;2024-03-02T12:58:38;5.03;;;3.47;;
19778;SDS011;10049;59.306;18.090;2024-03-02T13:01:06;5.57;;;3.22;;
19778;SDS011;10049;59.306;18.090;2024-03-02T13:03:36;6.20;;;3.47;;
19778;SDS011;10049;59.306;18.090;2024-03-02T13:06:05;4.88;;;2.95;;
19778;SDS011;10049;59.306;18.090;2024-03-02T13:08:35;6.68;;;3.47;;
19778;SDS011;10049;59.306;18.090;2024-03-02T13:11:05;6.97;;;3.13;;
19778;SDS011;10049;59.306;18.090;2024-03-02T13:13:35;6.80;;;3.22;;
19778;SDS011;10049;59.306;18.090;2024-03-02T13:16:07;6.07;;;3.22;;
19778;SDS011;10049;59.306;18.090;2024-03-02T13:18:35;5.35;;;3.50;;
19778;SDS011;10049;59.306;18.090;2024-03-02T13:21:06;5.53;;;3.08;;
19778;SDS011;10049;59.306;18.090;2024-03-02T13:23:51;3.83;;;2.63;;
19778;SDS011;10049;59.306;18.090;2024-03-02T13:32:16;5.65;;;3.10;;
19778;SDS011;10049;59.306;18.090;2024-03-02T13:34:51;6.45;;;3.25;;
19778;SDS011;10049;59.306;18.090;2024-03-02T13:37:19;8.55;;;3.08;;
19778;SDS011;10049;59.306;18.090;2024-03-02T13:39:47;6.55;;;3.00;;
19778;SDS011;10049;59.306;18.090;2024-03-02T13:42:17;4.00;;;2.85;;
19778;SDS011;10049;59.306;18.090;2024-03-02T13:44:48;6.50;;;3.17;;
19778;SDS011;10049;59.306;18.090;2024-03-02T13:47:18;7.10;;;4.07;;
19778;SDS011;10049;59.306;18.090;2024-03-02T13:49:46;9.38;;;2.53;;
19778;SDS011;10049;59.306;18.090;2024-03-02T13:52:15;5.90;;;3.10;;
19778;SDS011;10049;59.306;18.090;2024-03-02T13:54:43;4.78;;;2.88;;
19778;SDS011;10049;59.306;18.090;2024-03-02T13:57:13;4.85;;;2.95;;
19778;SDS011;10049;59.306;18.090;2024-03-02T13:59:40;5.15;;;3.20;;
19778;SDS011;10049;59.306;18.090;2024-03-02T14:02:11;6.38;;;3.03;;
19778;SDS011;10049;59.306;18.090;2024-03-02T14:04:40;5.90;;;3.10;;
19778;SDS011;10049;59.306;18.090;2024-03-02T14:07:08;5.80;;;3.38;;
19778;SDS011;10049;59.306;18.090;2024-03-02T14:09:37;7.18;;;3.08;;
19778;SDS011;10049;59.306;18.090;2024-03-02T14:12:05;6.53;;;3.30;;
19778;SDS011;10049;59.306;18.090;2024-03-02T14:14:33;5.00;;;2.90;;
19778;SDS011;10049;59.306;18.090;2024-03-02T14:17:01;5.57;;;3.17;;
19778;SDS011;10049;59.306;18.090;2024-03-02T14:19:31;7.93;;;3.20;;
19778;SDS011;10049;59.306;18.090;2024-03-02T14:22:02;7.60;;;2.70;;
19778;SDS011;10049;59.306;18.090;2024-03-02T14:24:34;5.82;;;3.33;;
19778;SDS011;10049;59.306;18.090;2024-03-02T14:27:02;4.47;;;2.85;;
19778;SDS011;10049;59.306;18.090;2024-03-02T14:29:32;4.47;;;3.20;;
19778;SDS011;10049;59.306;18.090;2024-03-02T14:32:01;4.82;;;2.88;;
19778;SDS011;10049;59.306;18.090;2024-03-02T14:34:29;5.65;;;3.35;;
19778;SDS011;10049;59.306;18.090;2024-03-02T14:37:24;5.38;;;3.30;;
19778;SDS011;10049;59.306;18.090;2024-03-02T14:39:52;5.32;;;3.30;;
19778;SDS011;10049;59.306;18.090;2024-03-02T14:42:31;7.15;;;3.35;;
19778;SDS011;10049;59.306;18.090;2024-03-02T14:44:59;4.53;;;3.28;;
19778;SDS011;10049;59.306;18.090;2024-03-02T14:47:29;5.82;;;3.35;;
19778;SDS011;10049;59.306;18.090;2024-03-02T14:49:56;6.03;;;3.40;;
19778;SDS011;10049;59.306;18.090;2024-03-02T14:52:26;6.22;;;3.75;;
19778;SDS011;10049;59.306;18.090;2024-03-02T14:54:53;4.22;;;2.97;;
19778;SDS011;10049;59.306;18.090;2024-03-02T14:57:23;3.67;;;2.40;;
19778;SDS011;10049;59.306;18.090;2024-03-02T14:59:52;8.55;;;4.05;;
19778;SDS011;10049;59.306;18.090;2024-03-02T15:02:21;6.32;;;3.47;;
19778;SDS011;10049;59.306;18.090;2024-03-02T15:04:50;4.82;;;2.80;;
19778;SDS011;10049;59.306;18.090;2024-03-02T15:07:18;4.90;;;3.28;;